Tizayuca Airport

Jump to: basic info | weather | runways | comments

Related pages: nearby airports | nearby navaids | notams | map

Basic information (top)

Codes: MM28
Location: lon 19.874001, lat -98.943604, elev 7,600 ft / 2,316 m msl
Status: small_airport

Weather (top)

Current conditions for Licenciado Benito Juarez International Airport 27nm (50km) SSW (rec'd 2014/09/18 20:52Z):

MMMX 182052Z 14012KT 15SM SCT020 SCT200 25/07 A3020 NOSIG RMK SLP051 57021 963 8/203 ISOL TCU AC

Airport forecast for Licenciado Benito Juarez International Airport 27nm (50km) SSW (rec'd 2014/09/18 18:00Z):

TAF COR MMMX 181732Z 1818/1924 10010KT P6SM SCT025 TX27/1820Z TN14/1912Z 
     FM182100 12015KT P6SM BKN020CB BKN230 
      TEMPO 1822/1902 5SM TSRA 
     FM190500 00000KT P6SM SCT015 SCT100 
     FM191200 00000KT 3SM HZ SCT010 SCT070 
     FM191600 20010KT 4SM HZ SCT020 SCT230

Runways (top)

01/19: 4,235 x 80 ft (1,291 x 24 m) — paved — not lighted

Latest comments (top)

No comments yet for Tizayuca Airport

More... (top)

See also NOTAMs and nearby airports and navaids, or visit the Tizayuca Airport page at the main OurAirports website..